Time,TemperatureF,DewpointF,PressureIn,WindDirection,WindDirectionDegrees,WindSpeedMPH,WindSpeedGustMPH,Humidity,HourlyPrecipIn,Conditions,Clouds,dailyrainin,SoftwareType,DateUTC
2013-04-11 00:01:00,68.0,60.2,29.91,SE,134,2.0,4.0,76,0.00,,---,0.00,VWS V14.01,2013-04-11 04:01:00,
2013-04-11 00:15:00,67.7,60.6,29.92,SE,125,2.0,3.0,78,0.00,,---,0.00,VWS V14.01,2013-04-11 04:15:00,
2013-04-11 00:30:00,67.2,60.8,29.93,SE,139,2.0,3.0,80,0.00,,---,0.00,VWS V14.01,2013-04-11 04:30:00,
2013-04-11 00:45:00,66.7,61.0,29.92,SE,132,2.0,3.0,82,0.00,,---,0.00,VWS V14.01,2013-04-11 04:45:00,
2013-04-11 01:00:00,66.4,61.1,29.92,SE,128,2.0,3.0,83,0.00,,---,0.00,VWS V14.01,2013-04-11 05:00:00,
2013-04-11 01:15:00,66.2,61.2,29.92,ESE,117,1.0,4.0,84,0.00,,---,0.00,VWS V14.01,2013-04-11 05:15:00,
2013-04-11 01:30:00,65.9,61.3,29.92,SSE,163,1.0,4.0,85,0.00,,---,0.00,VWS V14.01,2013-04-11 05:30:00,
2013-04-11 01:45:00,65.6,61.3,29.92,ESE,107,2.0,4.0,86,0.00,,---,0.00,VWS V14.01,2013-04-11 05:45:00,
2013-04-11 02:00:00,65.2,61.2,29.92,SE,132,1.0,2.0,87,0.00,,---,0.00,VWS V14.01,2013-04-11 06:00:00,
2013-04-11 02:15:00,64.9,61.3,29.92,SE,135,0.0,2.0,88,0.00,,---,0.00,VWS V14.01,2013-04-11 06:15:00,
2013-04-11 02:30:00,64.5,61.2,29.92,SE,135,0.0,2.0,89,0.00,,---,0.00,VWS V14.01,2013-04-11 06:30:00,
2013-04-11 02:45:00,64.2,61.2,29.92,SE,131,0.0,2.0,90,0.00,,---,0.00,VWS V14.01,2013-04-11 06:45:00,
2013-04-11 03:00:00,63.8,61.1,29.92,SE,135,0.0,2.0,91,0.00,,---,0.00,VWS V14.01,2013-04-11 07:00:00,
2013-04-11 03:16:00,63.4,61.0,29.91,SE,132,0.0,2.0,92,0.00,,---,0.00,VWS V14.01,2013-04-11 07:16:00,
2013-04-11 03:30:00,63.1,60.7,29.91,SE,131,1.0,2.0,92,0.00,,---,0.00,VWS V14.01,2013-04-11 07:30:00,
2013-04-11 03:45:00,62.9,60.8,29.90,SE,139,1.0,2.0,93,0.00,,---,0.00,VWS V14.01,2013-04-11 07:45:00,
2013-04-11 04:00:00,62.8,60.8,29.90,SE,133,1.0,2.0,93,0.00,,---,0.00,VWS V14.01,2013-04-11 08:00:00,
2013-04-11 04:15:00,62.6,60.8,29.90,SE,132,1.0,1.0,94,0.00,,---,0.00,VWS V14.01,2013-04-11 08:15:00,
2013-04-11 04:30:00,62.6,60.8,29.89,ESE,122,1.0,2.0,94,0.00,,---,0.00,VWS V14.01,2013-04-11 08:30:00,
2013-04-11 04:45:00,62.7,61.0,29.90,SE,135,1.0,2.0,94,0.00,,---,0.00,VWS V14.01,2013-04-11 08:45:00,
2013-04-11 05:00:00,63.0,61.2,29.90,SE,131,1.0,2.0,94,0.00,,---,0.00,VWS V14.01,2013-04-11 09:00:00,
2013-04-11 05:15:00,63.2,61.5,29.90,SE,134,1.0,2.0,94,0.00,,---,0.00,VWS V14.01,2013-04-11 09:15:00,
2013-04-11 05:30:00,63.5,61.8,29.90,SE,137,1.0,2.0,94,0.00,,---,0.00,VWS V14.01,2013-04-11 09:30:00,
2013-04-11 05:45:00,63.4,61.7,29.90,SE,135,1.0,2.0,94,0.00,,---,0.00,VWS V14.01,2013-04-11 09:45:00,
2013-04-11 06:00:00,63.6,61.8,29.90,SE,125,1.0,2.0,94,0.00,,---,0.00,VWS V14.01,2013-04-11 10:00:00,
2013-04-11 06:15:00,63.7,62.0,29.90,SE,136,1.0,2.0,94,0.00,,---,0.00,VWS V14.01,2013-04-11 10:15:00,
2013-04-11 06:30:00,63.8,62.0,29.90,SE,134,1.0,3.0,94,0.00,,---,0.00,VWS V14.01,2013-04-11 10:30:00,
2013-04-11 06:45:00,64.0,62.5,29.91,SE,137,1.0,3.0,95,0.00,,---,0.00,VWS V14.01,2013-04-11 10:45:00,
2013-04-11 07:00:00,64.1,62.6,29.91,SE,128,3.0,3.0,95,0.00,,---,0.00,VWS V14.01,2013-04-11 11:00:00,
2013-04-11 07:15:00,64.1,62.6,29.92,SE,146,1.0,3.0,95,0.00,,---,0.00,VWS V14.01,2013-04-11 11:15:00,
2013-04-11 07:30:00,64.2,62.7,29.92,SE,126,1.0,4.0,95,0.00,,---,0.00,VWS V14.01,2013-04-11 11:30:00,
2013-04-11 07:45:00,64.3,62.8,29.91,ESE,103,1.0,3.0,95,0.00,,---,0.00,VWS V14.01,2013-04-11 11:45:00,
2013-04-11 08:00:00,64.5,63.0,29.92,SE,140,1.0,3.0,95,0.00,,---,0.00,VWS V14.01,2013-04-11 12:00:00,
2013-04-11 08:15:00,64.8,63.3,29.92,SE,134,2.0,3.0,95,0.00,,---,0.00,VWS V14.01,2013-04-11 12:15:00,
2013-04-11 08:30:00,65.1,63.3,29.92,SE,143,0.0,5.0,94,0.00,,---,0.00,VWS V14.01,2013-04-11 12:30:00,
2013-04-11 08:45:00,65.6,63.8,29.92,SE,125,1.0,3.0,94,0.00,,---,0.00,VWS V14.01,2013-04-11 12:45:00,
2013-04-11 09:00:00,66.3,64.2,29.92,SE,135,2.0,3.0,93,0.00,,---,0.00,VWS V14.01,2013-04-11 13:00:00,
2013-04-11 09:15:00,66.9,64.5,29.93,SE,130,1.0,3.0,92,0.00,,---,0.00,VWS V14.01,2013-04-11 13:15:00,
2013-04-11 09:31:00,67.9,64.9,29.93,SE,143,2.0,4.0,90,0.00,,---,0.00,VWS V14.01,2013-04-11 13:31:00,
2013-04-11 09:45:00,67.5,64.5,29.92,SE,132,2.0,6.0,90,0.00,,---,0.00,VWS V14.01,2013-04-11 13:45:00,
2013-04-11 10:00:00,67.7,64.7,29.93,SE,142,1.0,5.0,90,0.00,,---,0.00,VWS V14.01,2013-04-11 14:00:00,
2013-04-11 10:15:00,68.3,64.9,29.92,SE,129,2.0,3.0,89,0.00,,---,0.00,VWS V14.01,2013-04-11 14:15:00,
2013-04-11 10:30:00,68.8,65.8,29.93,SE,143,1.0,4.0,90,0.00,,---,0.00,VWS V14.01,2013-04-11 14:30:00,
2013-04-11 10:45:00,70.0,66.0,29.92,SE,130,2.0,3.0,87,0.00,,---,0.00,VWS V14.01,2013-04-11 14:45:00,
2013-04-11 11:01:00,71.1,66.4,29.92,SE,143,1.0,5.0,85,0.00,,---,0.00,VWS V14.01,2013-04-11 15:01:00,
2013-04-11 11:16:00,72.7,66.9,29.91,SSE,160,2.0,2.0,82,0.00,,---,0.00,VWS V14.01,2013-04-11 15:16:00,
2013-04-11 11:31:00,73.8,67.2,29.91,SSW,200,2.0,5.0,80,0.00,,---,0.00,VWS V14.01,2013-04-11 15:31:00,
2013-04-11 11:46:00,74.4,67.5,29.90,ESE,105,3.0,5.0,79,0.00,,---,0.00,VWS V14.01,2013-04-11 15:46:00,
2013-04-11 12:01:00,75.3,68.0,29.90,SE,128,1.0,4.0,78,0.00,,---,0.00,VWS V14.01,2013-04-11 16:01:00,
2013-04-11 12:16:00,75.2,67.5,29.89,SE,127,2.0,7.0,77,0.00,,---,0.00,VWS V14.01,2013-04-11 16:16:00,
2013-04-11 12:31:00,75.7,68.0,29.89,ESE,114,4.0,8.0,77,0.00,,---,0.00,VWS V14.01,2013-04-11 16:31:00,
2013-04-11 12:46:00,76.7,67.8,29.88,SE,139,3.0,5.0,74,0.00,,---,0.00,VWS V14.01,2013-04-11 16:46:00,
2013-04-11 13:01:00,76.8,67.9,29.87,ESE,122,2.0,5.0,74,0.00,,---,0.00,VWS V14.01,2013-04-11 17:01:00,
2013-04-11 13:16:00,76.8,67.9,29.87,ESE,120,2.0,5.0,74,0.00,,---,0.00,VWS V14.01,2013-04-11 17:16:00,
2013-04-11 13:31:00,78.1,68.8,29.86,SE,140,4.0,7.0,73,0.00,,---,0.00,VWS V14.01,2013-04-11 17:31:00,
2013-04-11 13:46:00,78.2,68.0,29.86,SSE,160,1.0,7.0,71,0.00,,---,0.00,VWS V14.01,2013-04-11 17:46:00,
2013-04-11 14:01:00,78.5,68.3,29.85,SE,139,2.0,7.0,71,0.00,,---,0.00,VWS V14.01,2013-04-11 18:01:00,
2013-04-11 14:16:00,78.6,67.6,29.84,SE,131,8.0,8.0,69,0.00,,---,0.00,VWS V14.01,2013-04-11 18:16:00,
2013-04-11 14:31:00,79.0,67.1,29.84,SSE,150,3.0,8.0,67,0.00,,---,0.00,VWS V14.01,2013-04-11 18:31:00,
2013-04-11 14:46:00,80.0,67.2,29.83,SE,129,3.0,6.0,65,0.00,,---,0.00,VWS V14.01,2013-04-11 18:46:00,
2013-04-11 15:01:00,80.2,66.9,29.82,SE,127,3.0,4.0,64,0.00,,---,0.00,VWS V14.01,2013-04-11 19:01:00,
2013-04-11 15:16:00,79.4,67.1,29.81,SSE,148,2.0,6.0,66,0.00,,---,0.00,VWS V14.01,2013-04-11 19:16:00,
2013-04-11 15:31:00,80.4,67.1,29.80,SE,135,2.0,4.0,64,0.00,,---,0.00,VWS V14.01,2013-04-11 19:31:00,
2013-04-11 15:46:00,81.1,66.9,29.78,ESE,120,3.0,5.0,62,0.00,,---,0.00,VWS V14.01,2013-04-11 19:46:00,
2013-04-11 16:01:00,80.5,67.2,29.77,ESE,111,1.0,5.0,64,0.00,,---,0.00,VWS V14.01,2013-04-11 20:01:00,
2013-04-11 16:16:00,81.9,67.1,29.76,ESE,115,1.0,5.0,61,0.00,,---,0.00,VWS V14.01,2013-04-11 20:16:00,
2013-04-11 16:31:00,81.8,67.1,29.75,SE,134,2.0,6.0,61,0.00,,---,0.00,VWS V14.01,2013-04-11 20:31:00,
2013-04-11 16:46:00,80.7,66.5,29.74,ESE,122,0.0,5.0,62,0.00,,---,0.00,VWS V14.01,2013-04-11 20:46:00,
2013-04-11 17:01:00,80.3,66.6,29.74,SSE,150,3.0,6.0,63,0.00,,---,0.00,VWS V14.01,2013-04-11 21:01:00,
2013-04-11 17:16:00,80.0,66.7,29.73,ESE,111,3.0,3.0,64,0.00,,---,0.00,VWS V14.01,2013-04-11 21:16:00,
2013-04-11 17:31:00,81.0,66.8,29.73,SSE,148,3.0,6.0,62,0.00,,---,0.00,VWS V14.01,2013-04-11 21:31:00,
2013-04-11 17:46:00,80.6,66.8,29.72,SE,140,2.0,5.0,63,0.00,,---,0.00,VWS V14.01,2013-04-11 21:46:00,
2013-04-11 18:01:00,80.2,67.4,29.71,SE,126,1.0,3.0,65,0.00,,---,0.00,VWS V14.01,2013-04-11 22:01:00,
2013-04-11 18:16:00,79.7,66.9,29.71,SE,139,1.0,3.0,65,0.00,,---,0.00,VWS V14.01,2013-04-11 22:16:00,
2013-04-11 18:31:00,79.3,67.4,29.71,ESE,122,1.0,3.0,67,0.00,,---,0.00,VWS V14.01,2013-04-11 22:31:00,
2013-04-11 18:46:00,78.6,67.6,29.71,SE,146,2.0,3.0,69,0.00,,---,0.00,VWS V14.01,2013-04-11 22:46:00,
2013-04-11 19:01:00,78.0,67.4,29.71,ESE,117,2.0,3.0,70,0.00,,---,0.00,VWS V14.01,2013-04-11 23:01:00,
2013-04-11 19:16:00,77.6,67.5,29.71,SE,138,2.0,3.0,71,0.00,,---,0.00,VWS V14.01,2013-04-11 23:16:00,
2013-04-11 19:31:00,77.3,67.6,29.70,ESE,120,1.0,2.0,72,0.00,,---,0.00,VWS V14.01,2013-04-11 23:31:00,
2013-04-11 19:46:00,76.7,67.8,29.70,SE,142,1.0,3.0,74,0.00,,---,0.00,VWS V14.01,2013-04-11 23:46:00,
2013-04-11 20:01:00,75.5,67.8,29.71,SE,125,3.0,7.0,77,0.00,,---,0.00,VWS V14.01,2013-04-12 00:01:00,
2013-04-11 20:16:00,73.2,68.4,29.72,SE,129,3.0,8.0,85,0.00,,---,0.00,VWS V14.01,2013-04-12 00:16:00,
2013-04-11 20:31:00,71.8,68.4,29.71,ESE,123,2.0,6.0,89,0.00,,---,0.00,VWS V14.01,2013-04-12 00:31:00,
2013-04-11 20:46:00,71.0,68.2,29.71,ESE,114,3.0,6.0,91,0.00,,---,0.00,VWS V14.01,2013-04-12 00:46:00,
2013-04-11 21:01:00,70.6,67.8,29.70,SE,134,3.0,6.0,91,0.00,,---,0.00,VWS V14.01,2013-04-12 01:01:00,
2013-04-11 21:16:00,70.3,67.6,29.69,SE,128,2.0,5.0,91,0.00,,---,0.00,VWS V14.01,2013-04-12 01:16:00,
2013-04-11 21:31:00,70.1,67.7,29.70,SE,130,3.0,4.0,92,0.00,,---,0.00,VWS V14.01,2013-04-12 01:31:00,
2013-04-11 21:46:00,69.8,67.4,29.70,SE,124,3.0,3.0,92,0.00,,---,0.00,VWS V14.01,2013-04-12 01:46:00,
2013-04-11 22:01:00,69.6,67.2,29.70,SE,132,3.0,5.0,92,0.00,,---,0.00,VWS V14.01,2013-04-12 02:01:00,
2013-04-11 22:16:00,69.6,67.2,29.71,SE,137,3.0,5.0,92,0.00,,---,0.00,VWS V14.01,2013-04-12 02:16:00,
2013-04-11 22:31:00,69.7,67.3,29.71,SE,129,3.0,5.0,92,0.00,,---,0.00,VWS V14.01,2013-04-12 02:31:00,
2013-04-11 22:46:00,69.7,67.3,29.70,SE,133,3.0,5.0,92,0.00,,---,0.00,VWS V14.01,2013-04-12 02:46:00,
2013-04-11 23:01:00,69.7,67.3,29.70,SSE,152,3.0,5.0,92,0.00,,---,0.00,VWS V14.01,2013-04-12 03:01:00,
2013-04-11 23:16:00,69.7,67.3,29.71,ESE,114,3.0,5.0,92,0.00,,---,0.00,VWS V14.01,2013-04-12 03:16:00,
2013-04-11 23:31:00,69.9,67.2,29.71,SE,138,3.0,6.0,91,0.00,,---,0.00,VWS V14.01,2013-04-12 03:31:00,
2013-04-11 23:46:00,70.0,67.3,29.71,SE,125,3.0,6.0,91,0.00,,---,0.00,VWS V14.01,2013-04-12 03:46:00,